sensor_id;sensor_type;location;lat;lon;timestamp;P1;durP1;ratioP1;P2;durP2;ratioP2
18042;SDS011;9146;48.074;11.968;2023-04-24T00:00:14;3.47;;;2.83;;
18042;SDS011;9146;48.074;11.968;2023-04-24T00:02:44;4.20;;;2.43;;
18042;SDS011;9146;48.074;11.968;2023-04-24T00:05:12;2.90;;;2.70;;
18042;SDS011;9146;48.074;11.968;2023-04-24T00:07:40;2.90;;;2.70;;
18042;SDS011;9146;48.074;11.968;2023-04-24T00:10:07;3.00;;;2.70;;
18042;SDS011;9146;48.074;11.968;2023-04-24T00:12:35;4.00;;;2.80;;
18042;SDS011;9146;48.074;11.968;2023-04-24T00:15:03;3.00;;;2.37;;
18042;SDS011;9146;48.074;11.968;2023-04-24T00:17:30;3.07;;;2.60;;
18042;SDS011;9146;48.074;11.968;2023-04-24T00:19:59;2.67;;;2.50;;
18042;SDS011;9146;48.074;11.968;2023-04-24T00:22:28;2.50;;;2.30;;
18042;SDS011;9146;48.074;11.968;2023-04-24T00:24:55;6.07;;;2.70;;
18042;SDS011;9146;48.074;11.968;2023-04-24T00:27:22;2.70;;;2.27;;
18042;SDS011;9146;48.074;11.968;2023-04-24T00:29:49;4.40;;;2.83;;
18042;SDS011;9146;48.074;11.968;2023-04-24T00:32:16;3.10;;;2.40;;
18042;SDS011;9146;48.074;11.968;2023-04-24T00:34:43;2.30;;;2.10;;
18042;SDS011;9146;48.074;11.968;2023-04-24T00:37:11;2.33;;;2.10;;
18042;SDS011;9146;48.074;11.968;2023-04-24T00:39:38;3.60;;;2.40;;
18042;SDS011;9146;48.074;11.968;2023-04-24T00:42:05;4.27;;;2.57;;
18042;SDS011;9146;48.074;11.968;2023-04-24T00:44:32;2.63;;;2.43;;
18042;SDS011;9146;48.074;11.968;2023-04-24T00:46:59;2.23;;;1.83;;
18042;SDS011;9146;48.074;11.968;2023-04-24T00:49:27;2.27;;;2.10;;
18042;SDS011;9146;48.074;11.968;2023-04-24T00:51:54;4.53;;;2.33;;
18042;SDS011;9146;48.074;11.968;2023-04-24T00:54:23;2.20;;;2.00;;
18042;SDS011;9146;48.074;11.968;2023-04-24T00:56:51;2.47;;;1.80;;
18042;SDS011;9146;48.074;11.968;2023-04-24T00:59:18;2.30;;;2.10;;
18042;SDS011;9146;48.074;11.968;2023-04-24T01:01:45;2.63;;;2.30;;
18042;SDS011;9146;48.074;11.968;2023-04-24T01:04:12;2.07;;;1.97;;
18042;SDS011;9146;48.074;11.968;2023-04-24T01:06:40;2.30;;;2.10;;
18042;SDS011;9146;48.074;11.968;2023-04-24T01:09:08;1.70;;;1.60;;
18042;SDS011;9146;48.074;11.968;2023-04-24T01:11:39;2.20;;;2.00;;
18042;SDS011;9146;48.074;11.968;2023-04-24T01:14:08;2.60;;;1.93;;
18042;SDS011;9146;48.074;11.968;2023-04-24T01:16:35;2.07;;;1.83;;
18042;SDS011;9146;48.074;11.968;2023-04-24T01:19:03;1.83;;;1.73;;
18042;SDS011;9146;48.074;11.968;2023-04-24T01:21:30;1.77;;;1.67;;
18042;SDS011;9146;48.074;11.968;2023-04-24T01:24:02;1.67;;;1.63;;
18042;SDS011;9146;48.074;11.968;2023-04-24T01:26:30;1.63;;;1.53;;
18042;SDS011;9146;48.074;11.968;2023-04-24T01:28:57;1.83;;;1.70;;
18042;SDS011;9146;48.074;11.968;2023-04-24T01:31:24;2.07;;;1.97;;
18042;SDS011;9146;48.074;11.968;2023-04-24T01:33:50;1.80;;;1.60;;
18042;SDS011;9146;48.074;11.968;2023-04-24T01:36:17;1.80;;;1.70;;
18042;SDS011;9146;48.074;11.968;2023-04-24T01:38:45;1.50;;;1.40;;
18042;SDS011;9146;48.074;11.968;2023-04-24T01:41:14;4.13;;;1.40;;
18042;SDS011;9146;48.074;11.968;2023-04-24T01:43:41;1.53;;;1.43;;
18042;SDS011;9146;48.074;11.968;2023-04-24T01:46:08;1.60;;;1.50;;
18042;SDS011;9146;48.074;11.968;2023-04-24T01:48:35;1.43;;;1.33;;
18042;SDS011;9146;48.074;11.968;2023-04-24T01:51:02;1.60;;;1.50;;
18042;SDS011;9146;48.074;11.968;2023-04-24T01:53:29;3.07;;;1.60;;
18042;SDS011;9146;48.074;11.968;2023-04-24T01:55:56;1.60;;;1.47;;
18042;SDS011;9146;48.074;11.968;2023-04-24T01:58:25;1.40;;;1.30;;
18042;SDS011;9146;48.074;11.968;2023-04-24T02:00:53;1.40;;;1.30;;
18042;SDS011;9146;48.074;11.968;2023-04-24T02:03:22;1.20;;;1.20;;
18042;SDS011;9146;48.074;11.968;2023-04-24T02:05:49;2.03;;;1.43;;
18042;SDS011;9146;48.074;11.968;2023-04-24T02:08:16;1.03;;;1.03;;
18042;SDS011;9146;48.074;11.968;2023-04-24T02:10:43;1.40;;;1.30;;
18042;SDS011;9146;48.074;11.968;2023-04-24T02:13:10;1.67;;;1.57;;
18042;SDS011;9146;48.074;11.968;2023-04-24T02:15:38;5.30;;;1.30;;
18042;SDS011;9146;48.074;11.968;2023-04-24T02:18:05;3.27;;;1.10;;
18042;SDS011;9146;48.074;11.968;2023-04-24T02:20:32;1.67;;;1.00;;
18042;SDS011;9146;48.074;11.968;2023-04-24T02:23:00;1.30;;;1.30;;
18042;SDS011;9146;48.074;11.968;2023-04-24T02:25:27;1.60;;;1.43;;
18042;SDS011;9146;48.074;11.968;2023-04-24T02:27:54;2.13;;;1.50;;
18042;SDS011;9146;48.074;11.968;2023-04-24T02:30:21;2.10;;;1.30;;
18042;SDS011;9146;48.074;11.968;2023-04-24T02:32:49;3.40;;;1.40;;
18042;SDS011;9146;48.074;11.968;2023-04-24T02:35:16;2.00;;;1.30;;
18042;SDS011;9146;48.074;11.968;2023-04-24T02:37:43;1.20;;;1.00;;
18042;SDS011;9146;48.074;11.968;2023-04-24T02:40:10;1.70;;;1.60;;
18042;SDS011;9146;48.074;11.968;2023-04-24T02:42:37;1.10;;;1.10;;
18042;SDS011;9146;48.074;11.968;2023-04-24T02:45:04;3.40;;;1.43;;
18042;SDS011;9146;48.074;11.968;2023-04-24T02:47:32;1.20;;;1.10;;
18042;SDS011;9146;48.074;11.968;2023-04-24T02:50:00;1.23;;;1.13;;
18042;SDS011;9146;48.074;11.968;2023-04-24T02:52:27;1.27;;;1.17;;
18042;SDS011;9146;48.074;11.968;2023-04-24T02:54:54;4.30;;;1.17;;
18042;SDS011;9146;48.074;11.968;2023-04-24T02:57:21;1.40;;;1.30;;
18042;SDS011;9146;48.074;11.968;2023-04-24T02:59:48;1.23;;;1.20;;
18042;SDS011;9146;48.074;11.968;2023-04-24T03:02:15;1.30;;;1.17;;
18042;SDS011;9146;48.074;11.968;2023-04-24T03:04:42;1.30;;;1.20;;
18042;SDS011;9146;48.074;11.968;2023-04-24T03:07:10;2.53;;;1.30;;
18042;SDS011;9146;48.074;11.968;2023-04-24T03:09:37;1.20;;;1.10;;
18042;SDS011;9146;48.074;11.968;2023-04-24T03:12:04;1.57;;;1.47;;
18042;SDS011;9146;48.074;11.968;2023-04-24T03:14:31;1.40;;;1.30;;
18042;SDS011;9146;48.074;11.968;2023-04-24T03:16:58;1.53;;;1.43;;
18042;SDS011;9146;48.074;11.968;2023-04-24T03:19:25;1.70;;;1.60;;
18042;SDS011;9146;48.074;11.968;2023-04-24T03:21:52;2.87;;;1.40;;
18042;SDS011;9146;48.074;11.968;2023-04-24T03:24:20;2.00;;;1.43;;
18042;SDS011;9146;48.074;11.968;2023-04-24T03:26:47;1.27;;;1.20;;
18042;SDS011;9146;48.074;11.968;2023-04-24T03:29:14;1.30;;;1.30;;
18042;SDS011;9146;48.074;11.968;2023-04-24T03:31:41;1.20;;;1.20;;
18042;SDS011;9146;48.074;11.968;2023-04-24T03:34:08;1.67;;;1.57;;
18042;SDS011;9146;48.074;11.968;2023-04-24T03:36:35;1.33;;;1.23;;
18042;SDS011;9146;48.074;11.968;2023-04-24T03:39:01;1.60;;;1.50;;
18042;SDS011;9146;48.074;11.968;2023-04-24T03:41:30;1.40;;;1.30;;
18042;SDS011;9146;48.074;11.968;2023-04-24T03:43:57;4.00;;;1.30;;
18042;SDS011;9146;48.074;11.968;2023-04-24T03:46:24;1.30;;;1.20;;
18042;SDS011;9146;48.074;11.968;2023-04-24T03:48:51;1.30;;;1.30;;
18042;SDS011;9146;48.074;11.968;2023-04-24T03:51:17;2.63;;;1.73;;
18042;SDS011;9146;48.074;11.968;2023-04-24T03:53:44;0.93;;;0.93;;
18042;SDS011;9146;48.074;11.968;2023-04-24T03:56:11;3.07;;;1.40;;
18042;SDS011;9146;48.074;11.968;2023-04-24T03:58:39;1.67;;;1.57;;
18042;SDS011;9146;48.074;11.968;2023-04-24T04:01:06;1.27;;;1.20;;
18042;SDS011;9146;48.074;11.968;2023-04-24T04:03:34;1.70;;;1.47;;
18042;SDS011;9146;48.074;11.968;2023-04-24T04:06:01;1.70;;;1.60;;
18042;SDS011;9146;48.074;11.968;2023-04-24T04:08:27;1.80;;;1.43;;
18042;SDS011;9146;48.074;11.968;2023-04-24T04:10:55;1.80;;;1.50;;
18042;SDS011;9146;48.074;11.968;2023-04-24T04:13:22;3.80;;;1.90;;
18042;SDS011;9146;48.074;11.968;2023-04-24T04:15:50;2.50;;;1.40;;
18042;SDS011;9146;48.074;11.968;2023-04-24T04:18:17;2.50;;;1.97;;
18042;SDS011;9146;48.074;11.968;2023-04-24T04:20:44;1.67;;;1.57;;
18042;SDS011;9146;48.074;11.968;2023-04-24T04:23:11;2.07;;;1.77;;
18042;SDS011;9146;48.074;11.968;2023-04-24T04:25:38;1.80;;;1.70;;
18042;SDS011;9146;48.074;11.968;2023-04-24T04:28:05;2.63;;;1.73;;
18042;SDS011;9146;48.074;11.968;2023-04-24T04:30:31;1.50;;;1.50;;
18042;SDS011;9146;48.074;11.968;2023-04-24T04:33:00;1.90;;;1.80;;
18042;SDS011;9146;48.074;11.968;2023-04-24T04:35:27;2.83;;;1.93;;
18042;SDS011;9146;48.074;11.968;2023-04-24T04:37:54;1.90;;;1.80;;
18042;SDS011;9146;48.074;11.968;2023-04-24T04:40:23;1.50;;;1.40;;
18042;SDS011;9146;48.074;11.968;2023-04-24T04:42:51;1.60;;;1.50;;
18042;SDS011;9146;48.074;11.968;2023-04-24T04:45:19;1.50;;;1.40;;
18042;SDS011;9146;48.074;11.968;2023-04-24T04:47:45;2.30;;;1.53;;
18042;SDS011;9146;48.074;11.968;2023-04-24T04:50:15;1.43;;;1.40;;
18042;SDS011;9146;48.074;11.968;2023-04-24T04:52:44;1.37;;;1.27;;
18042;SDS011;9146;48.074;11.968;2023-04-24T04:55:11;1.50;;;1.40;;
18042;SDS011;9146;48.074;11.968;2023-04-24T04:57:39;1.93;;;1.83;;
18042;SDS011;9146;48.074;11.968;2023-04-24T05:00:07;1.87;;;1.77;;
18042;SDS011;9146;48.074;11.968;2023-04-24T05:02:36;4.87;;;1.60;;
18042;SDS011;9146;48.074;11.968;2023-04-24T05:05:04;1.87;;;1.47;;
18042;SDS011;9146;48.074;11.968;2023-04-24T05:07:33;1.27;;;1.17;;
18042;SDS011;9146;48.074;11.968;2023-04-24T05:10:00;1.50;;;1.43;;
18042;SDS011;9146;48.074;11.968;2023-04-24T05:12:27;1.33;;;1.30;;
18042;SDS011;9146;48.074;11.968;2023-04-24T05:14:54;1.57;;;1.47;;
18042;SDS011;9146;48.074;11.968;2023-04-24T05:17:21;1.67;;;1.57;;
18042;SDS011;9146;48.074;11.968;2023-04-24T05:19:47;2.23;;;1.30;;
18042;SDS011;9146;48.074;11.968;2023-04-24T05:22:14;3.10;;;1.70;;
18042;SDS011;9146;48.074;11.968;2023-04-24T05:24:47;1.50;;;1.40;;
18042;SDS011;9146;48.074;11.968;2023-04-24T05:27:14;2.03;;;1.67;;
18042;SDS011;9146;48.074;11.968;2023-04-24T05:29:41;1.43;;;1.37;;
18042;SDS011;9146;48.074;11.968;2023-04-24T05:32:08;1.63;;;1.53;;
18042;SDS011;9146;48.074;11.968;2023-04-24T05:34:35;1.60;;;1.50;;
18042;SDS011;9146;48.074;11.968;2023-04-24T05:37:02;1.83;;;1.73;;
18042;SDS011;9146;48.074;11.968;2023-04-24T05:39:33;1.83;;;1.73;;
18042;SDS011;9146;48.074;11.968;2023-04-24T05:42:01;4.87;;;1.80;;
18042;SDS011;9146;48.074;11.968;2023-04-24T05:44:29;1.27;;;1.27;;
18042;SDS011;9146;48.074;11.968;2023-04-24T05:46:56;3.13;;;1.90;;
18042;SDS011;9146;48.074;11.968;2023-04-24T05:49:23;2.10;;;2.00;;
18042;SDS011;9146;48.074;11.968;2023-04-24T05:51:50;1.57;;;1.47;;
18042;SDS011;9146;48.074;11.968;2023-04-24T05:54:17;2.87;;;1.70;;
18042;SDS011;9146;48.074;11.968;2023-04-24T05:56:43;1.87;;;1.70;;
18042;SDS011;9146;48.074;11.968;2023-04-24T05:59:12;1.67;;;1.57;;
18042;SDS011;9146;48.074;11.968;2023-04-24T06:01:39;2.33;;;1.50;;
18042;SDS011;9146;48.074;11.968;2023-04-24T06:04:06;1.70;;;1.60;;
18042;SDS011;9146;48.074;11.968;2023-04-24T06:06:34;1.60;;;1.50;;
18042;SDS011;9146;48.074;11.968;2023-04-24T06:09:01;2.10;;;1.23;;
18042;SDS011;9146;48.074;11.968;2023-04-24T06:11:29;1.63;;;1.53;;
18042;SDS011;9146;48.074;11.968;2023-04-24T06:13:56;2.73;;;1.57;;
18042;SDS011;9146;48.074;11.968;2023-04-24T06:16:26;1.63;;;1.47;;
18042;SDS011;9146;48.074;11.968;2023-04-24T06:18:52;1.43;;;1.33;;
18042;SDS011;9146;48.074;11.968;2023-04-24T06:21:20;1.50;;;1.40;;
18042;SDS011;9146;48.074;11.968;2023-04-24T06:23:47;1.10;;;1.10;;
18042;SDS011;9146;48.074;11.968;2023-04-24T06:26:14;1.10;;;1.10;;
18042;SDS011;9146;48.074;11.968;2023-04-24T06:28:41;0.93;;;0.93;;
18042;SDS011;9146;48.074;11.968;2023-04-24T06:31:08;1.23;;;1.13;;
18042;SDS011;9146;48.074;11.968;2023-04-24T06:33:37;0.97;;;0.97;;
18042;SDS011;9146;48.074;11.968;2023-04-24T06:36:04;1.10;;;1.10;;
18042;SDS011;9146;48.074;11.968;2023-04-24T06:38:31;0.80;;;0.80;;
18042;SDS011;9146;48.074;11.968;2023-04-24T06:40:59;0.90;;;0.90;;
18042;SDS011;9146;48.074;11.968;2023-04-24T06:43:25;3.07;;;1.03;;
18042;SDS011;9146;48.074;11.968;2023-04-24T06:45:53;0.83;;;0.83;;
18042;SDS011;9146;48.074;11.968;2023-04-24T06:48:19;0.80;;;0.80;;
18042;SDS011;9146;48.074;11.968;2023-04-24T06:50:48;0.80;;;0.80;;
18042;SDS011;9146;48.074;11.968;2023-04-24T06:53:15;0.73;;;0.73;;
18042;SDS011;9146;48.074;11.968;2023-04-24T06:55:42;0.80;;;0.80;;
18042;SDS011;9146;48.074;11.968;2023-04-24T06:58:10;1.10;;;0.80;;
18042;SDS011;9146;48.074;11.968;2023-04-24T07:00:37;1.23;;;1.00;;
18042;SDS011;9146;48.074;11.968;2023-04-24T07:03:04;1.20;;;0.97;;
18042;SDS011;9146;48.074;11.968;2023-04-24T07:05:31;0.93;;;0.80;;
18042;SDS011;9146;48.074;11.968;2023-04-24T07:08:01;0.80;;;0.80;;
18042;SDS011;9146;48.074;11.968;2023-04-24T07:10:31;0.70;;;0.70;;
18042;SDS011;9146;48.074;11.968;2023-04-24T07:13:00;0.77;;;0.70;;
18042;SDS011;9146;48.074;11.968;2023-04-24T07:15:27;2.70;;;0.87;;
18042;SDS011;9146;48.074;11.968;2023-04-24T07:17:54;0.70;;;0.70;;
18042;SDS011;9146;48.074;11.968;2023-04-24T07:20:21;0.80;;;0.80;;
18042;SDS011;9146;48.074;11.968;2023-04-24T07:22:48;0.83;;;0.83;;
18042;SDS011;9146;48.074;11.968;2023-04-24T07:25:18;0.80;;;0.80;;
18042;SDS011;9146;48.074;11.968;2023-04-24T07:27:45;0.80;;;0.80;;
18042;SDS011;9146;48.074;11.968;2023-04-24T07:30:14;0.90;;;0.90;;
18042;SDS011;9146;48.074;11.968;2023-04-24T07:32:41;0.70;;;0.70;;
18042;SDS011;9146;48.074;11.968;2023-04-24T07:35:08;0.77;;;0.77;;
18042;SDS011;9146;48.074;11.968;2023-04-24T07:37:35;0.90;;;0.90;;
18042;SDS011;9146;48.074;11.968;2023-04-24T07:40:03;0.80;;;0.80;;
18042;SDS011;9146;48.074;11.968;2023-04-24T07:42:32;0.70;;;0.70;;
18042;SDS011;9146;48.074;11.968;2023-04-24T07:44:59;1.47;;;0.90;;
18042;SDS011;9146;48.074;11.968;2023-04-24T07:47:26;0.83;;;0.67;;
18042;SDS011;9146;48.074;11.968;2023-04-24T07:49:53;0.93;;;0.90;;
18042;SDS011;9146;48.074;11.968;2023-04-24T07:52:20;0.70;;;0.70;;
18042;SDS011;9146;48.074;11.968;2023-04-24T07:54:47;1.03;;;0.80;;
18042;SDS011;9146;48.074;11.968;2023-04-24T07:57:14;1.47;;;1.27;;
18042;SDS011;9146;48.074;11.968;2023-04-24T07:59:43;0.70;;;0.70;;
18042;SDS011;9146;48.074;11.968;2023-04-24T08:02:10;0.70;;;0.70;;
18042;SDS011;9146;48.074;11.968;2023-04-24T08:04:37;3.23;;;1.10;;
18042;SDS011;9146;48.074;11.968;2023-04-24T08:07:04;0.87;;;0.87;;
18042;SDS011;9146;48.074;11.968;2023-04-24T08:09:30;1.10;;;1.00;;
18042;SDS011;9146;48.074;11.968;2023-04-24T08:11:57;0.70;;;0.70;;
18042;SDS011;9146;48.074;11.968;2023-04-24T08:14:24;0.63;;;0.63;;
18042;SDS011;9146;48.074;11.968;2023-04-24T08:16:53;2.73;;;0.70;;
18042;SDS011;9146;48.074;11.968;2023-04-24T08:19:21;0.80;;;0.80;;
18042;SDS011;9146;48.074;11.968;2023-04-24T08:21:48;0.73;;;0.73;;
18042;SDS011;9146;48.074;11.968;2023-04-24T08:24:14;1.23;;;0.80;;
18042;SDS011;9146;48.074;11.968;2023-04-24T08:26:41;0.83;;;0.83;;
18042;SDS011;9146;48.074;11.968;2023-04-24T08:29:08;0.90;;;0.90;;
18042;SDS011;9146;48.074;11.968;2023-04-24T08:31:35;0.77;;;0.77;;
18042;SDS011;9146;48.074;11.968;2023-04-24T08:34:04;1.00;;;0.90;;
18042;SDS011;9146;48.074;11.968;2023-04-24T08:36:31;1.07;;;0.87;;
18042;SDS011;9146;48.074;11.968;2023-04-24T08:38:58;0.93;;;0.83;;
18042;SDS011;9146;48.074;11.968;2023-04-24T08:41:26;0.80;;;0.80;;
18042;SDS011;9146;48.074;11.968;2023-04-24T08:43:53;0.70;;;0.70;;
18042;SDS011;9146;48.074;11.968;2023-04-24T08:46:23;0.70;;;0.70;;
18042;SDS011;9146;48.074;11.968;2023-04-24T08:48:51;2.30;;;0.80;;
18042;SDS011;9146;48.074;11.968;2023-04-24T08:51:20;0.70;;;0.70;;
18042;SDS011;9146;48.074;11.968;2023-04-24T08:53:47;0.70;;;0.70;;
18042;SDS011;9146;48.074;11.968;2023-04-24T08:56:15;0.60;;;0.60;;
18042;SDS011;9146;48.074;11.968;2023-04-24T08:58:44;0.70;;;0.70;;
18042;SDS011;9146;48.074;11.968;2023-04-24T09:01:11;0.83;;;0.70;;
18042;SDS011;9146;48.074;11.968;2023-04-24T09:03:41;0.70;;;0.70;;
18042;SDS011;9146;48.074;11.968;2023-04-24T09:06:09;1.13;;;0.73;;
18042;SDS011;9146;48.074;11.968;2023-04-24T09:08:38;0.60;;;0.60;;
18042;SDS011;9146;48.074;11.968;2023-04-24T09:11:07;0.90;;;0.90;;
18042;SDS011;9146;48.074;11.968;2023-04-24T09:13:35;2.03;;;1.00;;
18042;SDS011;9146;48.074;11.968;2023-04-24T09:16:02;2.50;;;0.87;;
18042;SDS011;9146;48.074;11.968;2023-04-24T09:18:30;0.90;;;0.90;;
18042;SDS011;9146;48.074;11.968;2023-04-24T09:20:58;0.80;;;0.80;;
18042;SDS011;9146;48.074;11.968;2023-04-24T09:23:26;1.90;;;1.00;;
18042;SDS011;9146;48.074;11.968;2023-04-24T09:25:56;0.80;;;0.80;;
18042;SDS011;9146;48.074;11.968;2023-04-24T09:28:25;0.80;;;0.80;;
18042;SDS011;9146;48.074;11.968;2023-04-24T09:31:06;1.10;;;1.00;;
18042;SDS011;9146;48.074;11.968;2023-04-24T09:33:35;1.00;;;1.00;;
18042;SDS011;9146;48.074;11.968;2023-04-24T09:36:02;1.17;;;1.17;;
18042;SDS011;9146;48.074;11.968;2023-04-24T09:38:31;0.90;;;0.90;;
18042;SDS011;9146;48.074;11.968;2023-04-24T09:41:01;1.40;;;1.30;;
18042;SDS011;9146;48.074;11.968;2023-04-24T09:43:28;1.20;;;1.20;;
18042;SDS011;9146;48.074;11.968;2023-04-24T09:45:56;2.00;;;1.27;;
18042;SDS011;9146;48.074;11.968;2023-04-24T09:48:30;1.00;;;1.00;;
18042;SDS011;9146;48.074;11.968;2023-04-24T09:50:58;1.30;;;1.30;;
18042;SDS011;9146;48.074;11.968;2023-04-24T09:53:26;1.77;;;1.20;;
18042;SDS011;9146;48.074;11.968;2023-04-24T09:55:54;1.47;;;1.20;;
18042;SDS011;9146;48.074;11.968;2023-04-24T09:58:25;1.10;;;1.10;;
18042;SDS011;9146;48.074;11.968;2023-04-24T10:00:55;1.17;;;1.10;;
18042;SDS011;9146;48.074;11.968;2023-04-24T10:03:25;1.37;;;0.93;;
18042;SDS011;9146;48.074;11.968;2023-04-24T10:05:53;1.27;;;1.17;;
18042;SDS011;9146;48.074;11.968;2023-04-24T10:08:20;0.97;;;0.97;;
18042;SDS011;9146;48.074;11.968;2023-04-24T10:10:47;1.40;;;1.17;;
18042;SDS011;9146;48.074;11.968;2023-04-24T10:13:14;1.63;;;1.30;;
18042;SDS011;9146;48.074;11.968;2023-04-24T10:15:43;1.03;;;1.00;;
18042;SDS011;9146;48.074;11.968;2023-04-24T10:18:10;1.20;;;1.20;;
18042;SDS011;9146;48.074;11.968;2023-04-24T10:20:40;3.87;;;1.27;;
18042;SDS011;9146;48.074;11.968;2023-04-24T10:23:07;1.50;;;1.40;;
18042;SDS011;9146;48.074;11.968;2023-04-24T10:25:34;1.53;;;1.47;;
18042;SDS011;9146;48.074;11.968;2023-04-24T10:28:03;3.77;;;1.53;;
18042;SDS011;9146;48.074;11.968;2023-04-24T10:30:31;1.20;;;1.10;;
18042;SDS011;9146;48.074;11.968;2023-04-24T10:33:03;1.40;;;1.30;;
18042;SDS011;9146;48.074;11.968;2023-04-24T10:35:31;1.07;;;1.00;;
18042;SDS011;9146;48.074;11.968;2023-04-24T10:37:59;1.43;;;1.33;;
18042;SDS011;9146;48.074;11.968;2023-04-24T10:40:31;1.20;;;1.10;;
18042;SDS011;9146;48.074;11.968;2023-04-24T10:43:01;2.40;;;2.20;;
18042;SDS011;9146;48.074;11.968;2023-04-24T10:45:31;1.53;;;1.43;;
18042;SDS011;9146;48.074;11.968;2023-04-24T10:47:59;1.40;;;1.30;;
18042;SDS011;9146;48.074;11.968;2023-04-24T10:50:29;1.17;;;1.10;;
18042;SDS011;9146;48.074;11.968;2023-04-24T10:53:12;1.10;;;1.10;;
18042;SDS011;9146;48.074;11.968;2023-04-24T10:55:41;1.70;;;1.10;;
18042;SDS011;9146;48.074;11.968;2023-04-24T10:58:10;1.27;;;1.13;;
18042;SDS011;9146;48.074;11.968;2023-04-24T11:00:38;1.30;;;1.20;;
18042;SDS011;9146;48.074;11.968;2023-04-24T11:03:06;6.67;;;1.23;;
18042;SDS011;9146;48.074;11.968;2023-04-24T11:05:53;2.07;;;1.63;;
18042;SDS011;9146;48.074;11.968;2023-04-24T11:08:23;1.30;;;1.17;;
18042;SDS011;9146;48.074;11.968;2023-04-24T11:10:56;1.33;;;1.27;;
18042;SDS011;9146;48.074;11.968;2023-04-24T11:13:25;4.40;;;1.60;;
18042;SDS011;9146;48.074;11.968;2023-04-24T11:16:12;1.20;;;1.20;;
18042;SDS011;9146;48.074;11.968;2023-04-24T11:18:40;1.40;;;1.40;;
18042;SDS011;9146;48.074;11.968;2023-04-24T11:21:12;1.33;;;1.30;;
18042;SDS011;9146;48.074;11.968;2023-04-24T11:23:42;1.10;;;1.10;;
18042;SDS011;9146;48.074;11.968;2023-04-24T11:26:10;3.10;;;1.33;;
18042;SDS011;9146;48.074;11.968;2023-04-24T11:28:44;3.80;;;1.87;;
18042;SDS011;9146;48.074;11.968;2023-04-24T11:34:08;1.20;;;1.10;;
18042;SDS011;9146;48.074;11.968;2023-04-24T11:36:38;1.60;;;1.40;;
18042;SDS011;9146;48.074;11.968;2023-04-24T11:39:06;1.40;;;1.37;;
18042;SDS011;9146;48.074;11.968;2023-04-24T11:41:33;1.13;;;1.13;;
18042;SDS011;9146;48.074;11.968;2023-04-24T11:44:00;1.27;;;1.27;;
18042;SDS011;9146;48.074;11.968;2023-04-24T11:46:28;1.00;;;1.00;;
18042;SDS011;9146;48.074;11.968;2023-04-24T11:48:56;1.80;;;1.50;;
18042;SDS011;9146;48.074;11.968;2023-04-24T11:51:25;1.57;;;1.47;;
18042;SDS011;9146;48.074;11.968;2023-04-24T11:53:54;1.50;;;1.40;;
18042;SDS011;9146;48.074;11.968;2023-04-24T11:56:22;1.60;;;1.40;;
18042;SDS011;9146;48.074;11.968;2023-04-24T11:58:51;2.10;;;1.50;;
18042;SDS011;9146;48.074;11.968;2023-04-24T12:01:19;1.60;;;1.50;;
18042;SDS011;9146;48.074;11.968;2023-04-24T12:03:49;1.63;;;1.53;;
18042;SDS011;9146;48.074;11.968;2023-04-24T12:06:17;5.20;;;1.80;;
18042;SDS011;9146;48.074;11.968;2023-04-24T12:08:45;1.60;;;1.50;;
18042;SDS011;9146;48.074;11.968;2023-04-24T12:11:16;2.00;;;1.90;;
18042;SDS011;9146;48.074;11.968;2023-04-24T12:13:45;1.60;;;1.50;;
18042;SDS011;9146;48.074;11.968;2023-04-24T12:16:12;1.50;;;1.40;;
18042;SDS011;9146;48.074;11.968;2023-04-24T12:18:43;1.43;;;1.30;;
18042;SDS011;9146;48.074;11.968;2023-04-24T12:21:17;1.80;;;1.63;;
18042;SDS011;9146;48.074;11.968;2023-04-24T12:23:45;1.77;;;1.67;;
18042;SDS011;9146;48.074;11.968;2023-04-24T12:26:16;2.10;;;1.60;;
18042;SDS011;9146;48.074;11.968;2023-04-24T12:28:46;1.80;;;1.70;;
18042;SDS011;9146;48.074;11.968;2023-04-24T12:31:14;1.50;;;1.40;;
18042;SDS011;9146;48.074;11.968;2023-04-24T12:33:42;1.70;;;1.60;;
18042;SDS011;9146;48.074;11.968;2023-04-24T12:36:09;1.63;;;1.53;;
18042;SDS011;9146;48.074;11.968;2023-04-24T12:38:38;1.83;;;1.60;;
18042;SDS011;9146;48.074;11.968;2023-04-24T12:41:10;1.90;;;1.70;;
18042;SDS011;9146;48.074;11.968;2023-04-24T12:43:40;1.70;;;1.60;;
18042;SDS011;9146;48.074;11.968;2023-04-24T12:46:17;2.13;;;1.93;;
18042;SDS011;9146;48.074;11.968;2023-04-24T12:48:44;1.53;;;1.43;;
18042;SDS011;9146;48.074;11.968;2023-04-24T12:51:11;4.70;;;1.90;;
18042;SDS011;9146;48.074;11.968;2023-04-24T12:53:38;1.80;;;1.70;;
18042;SDS011;9146;48.074;11.968;2023-04-24T12:56:05;1.70;;;1.60;;
18042;SDS011;9146;48.074;11.968;2023-04-24T12:58:32;2.17;;;2.07;;
18042;SDS011;9146;48.074;11.968;2023-04-24T13:01:00;1.83;;;1.73;;
18042;SDS011;9146;48.074;11.968;2023-04-24T13:03:27;2.03;;;1.83;;
18042;SDS011;9146;48.074;11.968;2023-04-24T13:05:54;3.27;;;1.50;;
18042;SDS011;9146;48.074;11.968;2023-04-24T13:08:21;1.90;;;1.80;;
18042;SDS011;9146;48.074;11.968;2023-04-24T13:10:48;2.40;;;2.20;;
18042;SDS011;9146;48.074;11.968;2023-04-24T13:13:16;2.57;;;1.40;;
18042;SDS011;9146;48.074;11.968;2023-04-24T13:15:43;1.70;;;1.60;;
18042;SDS011;9146;48.074;11.968;2023-04-24T13:18:12;1.70;;;1.60;;
18042;SDS011;9146;48.074;11.968;2023-04-24T13:20:39;1.73;;;1.63;;
18042;SDS011;9146;48.074;11.968;2023-04-24T13:23:06;1.97;;;1.70;;
18042;SDS011;9146;48.074;11.968;2023-04-24T13:25:34;1.67;;;1.57;;
18042;SDS011;9146;48.074;11.968;2023-04-24T13:28:02;1.47;;;1.37;;
18042;SDS011;9146;48.074;11.968;2023-04-24T13:30:29;1.47;;;1.47;;
18042;SDS011;9146;48.074;11.968;2023-04-24T13:32:56;2.07;;;1.83;;
18042;SDS011;9146;48.074;11.968;2023-04-24T13:35:24;1.70;;;1.60;;
18042;SDS011;9146;48.074;11.968;2023-04-24T13:37:51;4.60;;;1.87;;
18042;SDS011;9146;48.074;11.968;2023-04-24T13:40:17;2.83;;;1.70;;
18042;SDS011;9146;48.074;11.968;2023-04-24T13:42:44;1.67;;;1.57;;
18042;SDS011;9146;48.074;11.968;2023-04-24T13:45:11;9.33;;;1.90;;
18042;SDS011;9146;48.074;11.968;2023-04-24T13:47:39;1.43;;;1.30;;
18042;SDS011;9146;48.074;11.968;2023-04-24T13:50:07;3.87;;;1.53;;
18042;SDS011;9146;48.074;11.968;2023-04-24T13:52:36;1.70;;;1.60;;
18042;SDS011;9146;48.074;11.968;2023-04-24T13:55:03;1.40;;;1.30;;
18042;SDS011;9146;48.074;11.968;2023-04-24T13:57:30;1.80;;;1.63;;
18042;SDS011;9146;48.074;11.968;2023-04-24T13:59:57;1.70;;;1.60;;
18042;SDS011;9146;48.074;11.968;2023-04-24T14:02:26;2.00;;;1.43;;
18042;SDS011;9146;48.074;11.968;2023-04-24T14:04:53;1.97;;;1.70;;
18042;SDS011;9146;48.074;11.968;2023-04-24T14:07:20;1.87;;;1.77;;
18042;SDS011;9146;48.074;11.968;2023-04-24T14:09:48;2.10;;;2.00;;
18042;SDS011;9146;48.074;11.968;2023-04-24T14:12:16;1.83;;;1.73;;
18042;SDS011;9146;48.074;11.968;2023-04-24T14:14:44;2.20;;;1.70;;
18042;SDS011;9146;48.074;11.968;2023-04-24T14:17:12;16.73;;;1.93;;
18042;SDS011;9146;48.074;11.968;2023-04-24T14:19:39;1.67;;;1.57;;
18042;SDS011;9146;48.074;11.968;2023-04-24T14:22:06;3.63;;;1.70;;
18042;SDS011;9146;48.074;11.968;2023-04-24T14:24:33;1.80;;;1.70;;
18042;SDS011;9146;48.074;11.968;2023-04-24T14:27:01;3.07;;;1.80;;
18042;SDS011;9146;48.074;11.968;2023-04-24T14:29:30;1.50;;;1.50;;
18042;SDS011;9146;48.074;11.968;2023-04-24T14:31:56;5.60;;;1.97;;
18042;SDS011;9146;48.074;11.968;2023-04-24T14:34:23;3.80;;;2.43;;
18042;SDS011;9146;48.074;11.968;2023-04-24T14:36:50;2.03;;;1.87;;
18042;SDS011;9146;48.074;11.968;2023-04-24T14:39:18;1.53;;;1.53;;
18042;SDS011;9146;48.074;11.968;2023-04-24T14:41:45;1.93;;;1.73;;
18042;SDS011;9146;48.074;11.968;2023-04-24T14:44:13;2.53;;;2.00;;
18042;SDS011;9146;48.074;11.968;2023-04-24T14:46:41;2.80;;;1.40;;
18042;SDS011;9146;48.074;11.968;2023-04-24T14:49:08;1.70;;;1.60;;
18042;SDS011;9146;48.074;11.968;2023-04-24T14:51:36;3.00;;;1.50;;
18042;SDS011;9146;48.074;11.968;2023-04-24T14:54:03;1.90;;;1.80;;